Aérodrome :
LOGIN :

S'inscrire | Disclaimer

   EN    FR    IT 

 










Légende :    VFR   VFR Marginal   IFR   IFR Intensif   IFR Très Intensif
Visi : 
Plafond : 
>= 8 km
>= 3000ft
5 à 8 km
1000 à 3000 ft
1500m à 5 km
500 à 1000 ft
800 à 1500m
200 à 500 ft
< 800m
< 200 ft
Symboles :   Orages  Brouillard  Fortes neiges  Fortes précipitations  Vent > 20 kt
SIGMETs :   Divers  Orages  Givrage  Turbulence  Onde Orograph.  Cendres Volcan.







- Altitude de l'aérodrome : -15 ft
- Code IATA : RTM


EHRD - Rotterdam Zestienhoven

DERNIER METAR :
  • 201525Z AUTO 25011KT 230V290 9999 FEW019 SCT023 18/13 Q1013 NOSIG

METARs EXPIRÉS :
  • 201455Z AUTO 27009KT 220V320 9999 FEW022 19/13 Q1012 NOSIG
  • 201425Z AUTO 25011KT 220V290 9999 FEW026 19/13 Q1012 NOSIG
  • 201355Z AUTO 25010KT 220V340 9999 FEW027 19/12 Q1012 NOSIG
  • 201325Z AUTO 28008KT 220V340 9999 FEW023 19/13 Q1012 NOSIG
  • 201255Z AUTO 27010KT 220V320 9999 SCT020 19/13 Q1012 BECMG 29014KT

TAF TAF EHRD
Valide du 20 à 12h jusqu'au 21 à 18h UTC


201102Z 2012/2118 28013KT 9999 SCT022
BECMG 2018/2021 22006KT
PROB30
TEMPO 2102/2108 7000 -RA -SHRA BKN014 SCT016TCU
BECMG 2108/2111 28008KT
Pas de NOTAMs connus pour ce terrain.



MET'MAP, la Météo Aéronautique d'un coup d'oeil ! - Copyright ORBIFLY Décembre 2007 - Disclaimer

ORBIFLY MET'MAP TEAM :

Programmation & Développement : Alexandra Zaïnal
Conception & Développement : Baudouin d'Aumeries
Co-Programmation & Développement : Marc-Olivier Méhu
Soutien technique & logistique : Manuel Goepfert

Contact : metmap@orbifly.com




SOURCES & CREDITS :

   NOAA